sensor_id;sensor_type;location;lat;lon;timestamp;pressure;altitude;pressure_sealevel;temperature;humidity
44131;BME280;29792;48.726;9.248;2023-10-13T00:01:18;97013.72;;;20.03;50.78
44131;BME280;29792;48.726;9.248;2023-10-13T00:03:44;97010.16;;;20.04;51.05
44131;BME280;29792;48.726;9.248;2023-10-13T00:06:09;97009.72;;;20.01;50.28
44131;BME280;29792;48.726;9.248;2023-10-13T00:08:35;97002.09;;;19.99;50.45
44131;BME280;29792;48.726;9.248;2023-10-13T00:11:02;97003.44;;;19.95;50.34
44131;BME280;29792;48.726;9.248;2023-10-13T00:13:28;96993.22;;;19.94;50.08
44131;BME280;29792;48.726;9.248;2023-10-13T00:15:56;96997.81;;;19.92;50.25
44131;BME280;29792;48.726;9.248;2023-10-13T00:18:32;96999.78;;;19.90;50.30
44131;BME280;29792;48.726;9.248;2023-10-13T00:21:03;96990.53;;;19.87;50.10
44131;BME280;29792;48.726;9.248;2023-10-13T00:23:38;96984.53;;;19.87;50.69
44131;BME280;29792;48.726;9.248;2023-10-13T00:26:04;96997.25;;;19.81;50.55
44131;BME280;29792;48.726;9.248;2023-10-13T00:28:34;96996.63;;;19.79;50.58
44131;BME280;29792;48.726;9.248;2023-10-13T00:31:23;96986.78;;;19.75;50.69
44131;BME280;29792;48.726;9.248;2023-10-13T00:33:48;96989.75;;;19.72;50.61
44131;BME280;29792;48.726;9.248;2023-10-13T00:36:17;96987.53;;;19.69;50.41
44131;BME280;29792;48.726;9.248;2023-10-13T00:38:45;96988.69;;;19.66;51.11
44131;BME280;29792;48.726;9.248;2023-10-13T00:41:15;96986.44;;;19.63;50.92
44131;BME280;29792;48.726;9.248;2023-10-13T00:43:46;96981.78;;;19.59;51.17
44131;BME280;29792;48.726;9.248;2023-10-13T00:46:32;96982.94;;;19.56;51.16
44131;BME280;29792;48.726;9.248;2023-10-13T00:49:00;96988.50;;;19.53;51.44
44131;BME280;29792;48.726;9.248;2023-10-13T00:51:26;96986.25;;;19.50;51.46
44131;BME280;29792;48.726;9.248;2023-10-13T00:54:04;96983.03;;;19.48;51.19
44131;BME280;29792;48.726;9.248;2023-10-13T00:56:33;96979.75;;;19.46;51.33
44131;BME280;29792;48.726;9.248;2023-10-13T00:58:59;96979.16;;;19.44;51.54
44131;BME280;29792;48.726;9.248;2023-10-13T01:01:30;96980.13;;;19.43;51.41
44131;BME280;29792;48.726;9.248;2023-10-13T01:03:58;96975.91;;;19.42;51.56
44131;BME280;29792;48.726;9.248;2023-10-13T01:06:28;96985.69;;;19.40;51.54
44131;BME280;29792;48.726;9.248;2023-10-13T01:09:04;96987.03;;;19.36;51.68
44131;BME280;29792;48.726;9.248;2023-10-13T01:11:41;96988.34;;;19.32;51.85
44131;BME280;29792;48.726;9.248;2023-10-13T01:14:13;96987.94;;;19.28;52.29
44131;BME280;29792;48.726;9.248;2023-10-13T01:16:40;96982.09;;;19.26;52.04
44131;BME280;29792;48.726;9.248;2023-10-13T01:19:12;96985.03;;;19.23;52.70
44131;BME280;29792;48.726;9.248;2023-10-13T01:21:40;96980.22;;;19.20;52.25
44131;BME280;29792;48.726;9.248;2023-10-13T01:24:07;96980.56;;;19.17;52.57
44131;BME280;29792;48.726;9.248;2023-10-13T01:26:34;96975.72;;;19.14;52.60
44131;BME280;29792;48.726;9.248;2023-10-13T01:29:03;96965.88;;;19.10;52.62
44131;BME280;29792;48.726;9.248;2023-10-13T01:31:37;96972.22;;;19.07;52.73
44131;BME280;29792;48.726;9.248;2023-10-13T01:34:02;96969.19;;;19.03;52.68
44131;BME280;29792;48.726;9.248;2023-10-13T01:36:28;96959.94;;;19.01;52.68
44131;BME280;29792;48.726;9.248;2023-10-13T01:38:54;96961.09;;;18.98;52.56
44131;BME280;29792;48.726;9.248;2023-10-13T01:41:20;96951.88;;;18.96;53.01
44131;BME280;29792;48.726;9.248;2023-10-13T01:43:46;96957.25;;;18.94;52.94
44131;BME280;29792;48.726;9.248;2023-10-13T01:46:11;96961.00;;;18.92;53.21
44131;BME280;29792;48.726;9.248;2023-10-13T01:48:39;96956.94;;;18.89;52.77
44131;BME280;29792;48.726;9.248;2023-10-13T01:51:06;96964.94;;;18.88;53.09
44131;BME280;29792;48.726;9.248;2023-10-13T01:53:35;96958.94;;;18.87;53.21
44131;BME280;29792;48.726;9.248;2023-10-13T01:56:01;96958.13;;;18.87;52.91
44131;BME280;29792;48.726;9.248;2023-10-13T01:58:30;96959.09;;;18.86;53.14
44131;BME280;29792;48.726;9.248;2023-10-13T02:00:56;96953.91;;;18.86;53.12
44131;BME280;29792;48.726;9.248;2023-10-13T02:03:21;96958.47;;;18.84;53.45
44131;BME280;29792;48.726;9.248;2023-10-13T02:05:48;96951.81;;;18.81;53.55
44131;BME280;29792;48.726;9.248;2023-10-13T02:08:21;96949.44;;;18.80;53.69
44131;BME280;29792;48.726;9.248;2023-10-13T02:10:58;96944.75;;;18.75;53.74
44131;BME280;29792;48.726;9.248;2023-10-13T02:13:26;96945.13;;;18.72;53.73
44131;BME280;29792;48.726;9.248;2023-10-13T02:15:57;96941.06;;;18.70;54.12
44131;BME280;29792;48.726;9.248;2023-10-13T02:18:23;96937.03;;;18.67;54.11
44131;BME280;29792;48.726;9.248;2023-10-13T02:20:53;96932.22;;;18.64;54.07
44131;BME280;29792;48.726;9.248;2023-10-13T02:23:25;96931.41;;;18.63;54.46
44131;BME280;29792;48.726;9.248;2023-10-13T02:25:54;96930.75;;;18.61;54.14
44131;BME280;29792;48.726;9.248;2023-10-13T02:28:28;96927.38;;;18.61;53.81
44131;BME280;29792;48.726;9.248;2023-10-13T02:30:56;96927.53;;;18.59;53.79
44131;BME280;29792;48.726;9.248;2023-10-13T02:33:22;96922.34;;;18.59;53.81
44131;BME280;29792;48.726;9.248;2023-10-13T02:35:58;96916.34;;;18.59;54.00
44131;BME280;29792;48.726;9.248;2023-10-13T02:38:23;96912.13;;;18.58;53.82
44131;BME280;29792;48.726;9.248;2023-10-13T02:41:25;96908.09;;;18.55;53.92
44131;BME280;29792;48.726;9.248;2023-10-13T02:43:52;96909.22;;;18.53;54.30
44131;BME280;29792;48.726;9.248;2023-10-13T02:46:17;96907.94;;;18.49;54.05
44131;BME280;29792;48.726;9.248;2023-10-13T02:48:43;96904.13;;;18.45;54.11
44131;BME280;29792;48.726;9.248;2023-10-13T02:51:11;96903.84;;;18.40;54.44
44131;BME280;29792;48.726;9.248;2023-10-13T02:53:46;96898.34;;;18.35;54.37
44131;BME280;29792;48.726;9.248;2023-10-13T02:56:15;96893.69;;;18.30;54.55
44131;BME280;29792;48.726;9.248;2023-10-13T02:58:52;96895.16;;;18.24;54.42
44131;BME280;29792;48.726;9.248;2023-10-13T03:01:34;96890.69;;;18.18;54.80
44131;BME280;29792;48.726;9.248;2023-10-13T03:04:03;96896.03;;;18.17;54.94
44131;BME280;29792;48.726;9.248;2023-10-13T03:06:29;96891.06;;;18.15;54.56
44131;BME280;29792;48.726;9.248;2023-10-13T03:08:58;96898.84;;;18.15;54.66
44131;BME280;29792;48.726;9.248;2023-10-13T03:11:38;96895.59;;;18.13;54.97
44131;BME280;29792;48.726;9.248;2023-10-13T03:14:04;96890.75;;;18.10;55.37
44131;BME280;29792;48.726;9.248;2023-10-13T03:16:32;96890.75;;;18.10;55.01
44131;BME280;29792;48.726;9.248;2023-10-13T03:18:57;96885.94;;;18.07;55.16
44131;BME280;29792;48.726;9.248;2023-10-13T03:21:23;96888.50;;;18.07;55.37
44131;BME280;29792;48.726;9.248;2023-10-13T03:23:56;96886.25;;;18.04;55.10
44131;BME280;29792;48.726;9.248;2023-10-13T03:26:21;96882.03;;;18.03;55.90
44131;BME280;29792;48.726;9.248;2023-10-13T03:28:47;96885.63;;;18.02;55.11
44131;BME280;29792;48.726;9.248;2023-10-13T03:31:20;96878.19;;;17.99;56.11
44131;BME280;29792;48.726;9.248;2023-10-13T03:33:52;96880.97;;;17.98;55.98
44131;BME280;29792;48.726;9.248;2023-10-13T03:36:22;96874.31;;;17.95;55.90
44131;BME280;29792;48.726;9.248;2023-10-13T03:39:19;96872.88;;;17.92;55.98
44131;BME280;29792;48.726;9.248;2023-10-13T03:41:48;96873.88;;;17.91;56.13
44131;BME280;29792;48.726;9.248;2023-10-13T03:44:18;96876.00;;;17.88;56.69
44131;BME280;29792;48.726;9.248;2023-10-13T03:46:44;96868.38;;;17.86;56.41
44131;BME280;29792;48.726;9.248;2023-10-13T03:49:13;96862.56;;;17.84;56.65
44131;BME280;29792;48.726;9.248;2023-10-13T03:51:40;96869.88;;;17.81;56.84
44131;BME280;29792;48.726;9.248;2023-10-13T03:54:05;96876.22;;;17.78;56.01
44131;BME280;29792;48.726;9.248;2023-10-13T03:56:34;96874.75;;;17.76;56.35
44131;BME280;29792;48.726;9.248;2023-10-13T03:59:08;96868.16;;;17.73;56.34
44131;BME280;29792;48.726;9.248;2023-10-13T04:01:46;96876.09;;;17.72;56.22
44131;BME280;29792;48.726;9.248;2023-10-13T04:04:18;96870.25;;;17.70;56.34
44131;BME280;29792;48.726;9.248;2023-10-13T04:07:08;96867.22;;;17.66;56.50
44131;BME280;29792;48.726;9.248;2023-10-13T04:09:36;96869.16;;;17.64;56.51
44131;BME280;29792;48.726;9.248;2023-10-13T04:12:10;96864.97;;;17.63;56.34
44131;BME280;29792;48.726;9.248;2023-10-13T04:14:45;96863.34;;;17.62;56.70
44131;BME280;29792;48.726;9.248;2023-10-13T04:17:19;96866.06;;;17.61;56.72
44131;BME280;29792;48.726;9.248;2023-10-13T04:19:48;96870.44;;;17.60;56.80
44131;BME280;29792;48.726;9.248;2023-10-13T04:22:35;96865.47;;;17.59;56.96
44131;BME280;29792;48.726;9.248;2023-10-13T04:25:20;96875.16;;;17.57;56.79
44131;BME280;29792;48.726;9.248;2023-10-13T04:28:08;96870.31;;;17.53;56.92
44131;BME280;29792;48.726;9.248;2023-10-13T04:33:17;96867.88;;;17.52;57.13
44131;BME280;29792;48.726;9.248;2023-10-13T04:36:11;96873.25;;;17.50;57.23
44131;BME280;29792;48.726;9.248;2023-10-13T04:38:43;96869.06;;;17.49;57.32
44131;BME280;29792;48.726;9.248;2023-10-13T04:41:28;96865.81;;;17.47;57.22
44131;BME280;29792;48.726;9.248;2023-10-13T04:44:03;96867.59;;;17.47;57.56
44131;BME280;29792;48.726;9.248;2023-10-13T04:46:47;96866.97;;;17.45;57.10
44131;BME280;29792;48.726;9.248;2023-10-13T04:49:12;96855.97;;;17.43;57.15
44131;BME280;29792;48.726;9.248;2023-10-13T04:51:57;96851.94;;;17.40;57.22
44131;BME280;29792;48.726;9.248;2023-10-13T04:54:45;96845.13;;;17.39;57.82
44131;BME280;29792;48.726;9.248;2023-10-13T04:57:16;96853.88;;;17.38;57.60
44131;BME280;29792;48.726;9.248;2023-10-13T04:59:45;96850.31;;;17.39;57.81
44131;BME280;29792;48.726;9.248;2023-10-13T05:02:29;96840.94;;;17.38;57.72
44131;BME280;29792;48.726;9.248;2023-10-13T05:05:00;96853.06;;;17.38;57.46
44131;BME280;29792;48.726;9.248;2023-10-13T05:07:33;96847.09;;;17.37;57.76
44131;BME280;29792;48.726;9.248;2023-10-13T05:10:18;96837.69;;;17.36;57.45
44131;BME280;29792;48.726;9.248;2023-10-13T05:13:02;96841.91;;;17.37;57.80
44131;BME280;29792;48.726;9.248;2023-10-13T05:15:50;96840.13;;;17.38;57.42
44131;BME280;29792;48.726;9.248;2023-10-13T05:18:35;96841.09;;;17.37;57.76
44131;BME280;29792;48.726;9.248;2023-10-13T05:21:19;96840.94;;;17.38;57.65
44131;BME280;29792;48.726;9.248;2023-10-13T05:24:04;96840.13;;;17.38;57.55
44131;BME280;29792;48.726;9.248;2023-10-13T05:26:47;96844.97;;;17.41;57.90
44131;BME280;29792;48.726;9.248;2023-10-13T05:29:31;96836.03;;;17.43;57.75
44131;BME280;29792;48.726;9.248;2023-10-13T05:32:15;96835.06;;;17.44;57.76
44131;BME280;29792;48.726;9.248;2023-10-13T05:34:59;96831.50;;;17.45;57.50
44131;BME280;29792;48.726;9.248;2023-10-13T05:37:43;96834.25;;;17.44;57.55
44131;BME280;29792;48.726;9.248;2023-10-13T05:40:27;96822.84;;;17.30;57.72
44131;BME280;29792;48.726;9.248;2023-10-13T05:43:10;96822.91;;;17.14;58.29
44131;BME280;29792;48.726;9.248;2023-10-13T05:46:00;96825.25;;;17.01;59.04
44131;BME280;29792;48.726;9.248;2023-10-13T05:48:44;96816.53;;;16.94;59.80
44131;BME280;29792;48.726;9.248;2023-10-13T05:51:25;96828.34;;;16.88;60.31
44131;BME280;29792;48.726;9.248;2023-10-13T05:53:58;96814.47;;;16.81;61.12
44131;BME280;29792;48.726;9.248;2023-10-13T05:56:49;96832.94;;;16.78;61.56
44131;BME280;29792;48.726;9.248;2023-10-13T05:59:44;96824.50;;;16.76;61.29
44131;BME280;29792;48.726;9.248;2023-10-13T06:02:27;96823.06;;;16.73;62.03
44131;BME280;29792;48.726;9.248;2023-10-13T06:05:12;96827.28;;;16.66;62.78
44131;BME280;29792;48.726;9.248;2023-10-13T06:07:57;96835.34;;;16.63;63.06
44131;BME280;29792;48.726;9.248;2023-10-13T06:10:42;96829.19;;;16.56;63.86
44131;BME280;29792;48.726;9.248;2023-10-13T06:13:27;96830.69;;;16.51;64.49
44131;BME280;29792;48.726;9.248;2023-10-13T06:16:13;96836.31;;;16.46;65.04
44131;BME280;29792;48.726;9.248;2023-10-13T06:18:58;96840.06;;;16.44;64.79
44131;BME280;29792;48.726;9.248;2023-10-13T06:21:43;96836.97;;;16.40;65.74
44131;BME280;29792;48.726;9.248;2023-10-13T06:24:27;96839.91;;;16.37;66.51
44131;BME280;29792;48.726;9.248;2023-10-13T06:27:11;96844.28;;;16.36;66.97
44131;BME280;29792;48.726;9.248;2023-10-13T06:29:55;96853.47;;;16.31;67.44
44131;BME280;29792;48.726;9.248;2023-10-13T06:32:22;96847.66;;;16.29;67.92
44131;BME280;29792;48.726;9.248;2023-10-13T06:34:54;96854.13;;;16.25;68.23
44131;BME280;29792;48.726;9.248;2023-10-13T06:37:48;96848.47;;;16.21;68.69
44131;BME280;29792;48.726;9.248;2023-10-13T06:40:13;96847.03;;;16.19;69.31
44131;BME280;29792;48.726;9.248;2023-10-13T06:42:51;96845.25;;;16.19;69.86
44131;BME280;29792;48.726;9.248;2023-10-13T06:45:18;96841.84;;;16.19;70.12
44131;BME280;29792;48.726;9.248;2023-10-13T06:47:43;96845.91;;;16.21;70.78
44131;BME280;29792;48.726;9.248;2023-10-13T06:50:09;96839.91;;;16.21;70.94
44131;BME280;29792;48.726;9.248;2023-10-13T06:52:55;96835.38;;;16.23;71.06
44131;BME280;29792;48.726;9.248;2023-10-13T06:55:20;96834.25;;;16.25;70.96
44131;BME280;29792;48.726;9.248;2023-10-13T06:57:52;96835.72;;;16.28;71.27
44131;BME280;29792;48.726;9.248;2023-10-13T07:00:17;96837.00;;;16.32;71.22
44131;BME280;29792;48.726;9.248;2023-10-13T07:02:59;96838.91;;;16.38;71.39
44131;BME280;29792;48.726;9.248;2023-10-13T07:05:56;96835.69;;;16.44;71.28
44131;BME280;29792;48.726;9.248;2023-10-13T07:08:24;96840.06;;;16.52;71.57
44131;BME280;29792;48.726;9.248;2023-10-13T07:10:54;96838.41;;;16.59;71.50
44131;BME280;29792;48.726;9.248;2023-10-13T07:13:28;96837.31;;;16.69;71.60
44131;BME280;29792;48.726;9.248;2023-10-13T07:15:54;96834.06;;;16.75;71.16
44131;BME280;29792;48.726;9.248;2023-10-13T07:18:25;96846.16;;;16.83;71.27
44131;BME280;29792;48.726;9.248;2023-10-13T07:20:50;96843.56;;;16.91;71.34
44131;BME280;29792;48.726;9.248;2023-10-13T07:23:15;96838.81;;;17.03;70.92
44131;BME280;29792;48.726;9.248;2023-10-13T07:25:52;96844.28;;;17.16;70.42
44131;BME280;29792;48.726;9.248;2023-10-13T07:28:19;96841.28;;;17.27;70.46
44131;BME280;29792;48.726;9.248;2023-10-13T07:30:45;96850.16;;;17.41;70.80
44131;BME280;29792;48.726;9.248;2023-10-13T07:33:19;96847.66;;;17.55;70.19
44131;BME280;29792;48.726;9.248;2023-10-13T07:35:58;96844.53;;;17.68;69.82
44131;BME280;29792;48.726;9.248;2023-10-13T07:38:24;96845.91;;;17.79;69.34
44131;BME280;29792;48.726;9.248;2023-10-13T07:40:49;96842.31;;;17.88;68.79
44131;BME280;29792;48.726;9.248;2023-10-13T07:43:17;96853.25;;;17.98;67.92
44131;BME280;29792;48.726;9.248;2023-10-13T07:45:47;96849.25;;;18.10;67.57
44131;BME280;29792;48.726;9.248;2023-10-13T07:48:17;96852.09;;;18.23;67.44
44131;BME280;29792;48.726;9.248;2023-10-13T07:50:58;96844.84;;;18.34;66.85
44131;BME280;29792;48.726;9.248;2023-10-13T07:53:29;96845.44;;;18.44;66.37
44131;BME280;29792;48.726;9.248;2023-10-13T07:55:59;96846.34;;;18.51;65.70
44131;BME280;29792;48.726;9.248;2023-10-13T07:58:30;96846.63;;;18.56;65.00
44131;BME280;29792;48.726;9.248;2023-10-13T08:00:58;96845.94;;;18.62;64.87
44131;BME280;29792;48.726;9.248;2023-10-13T08:03:33;96847.81;;;18.68;64.64
44131;BME280;29792;48.726;9.248;2023-10-13T08:06:15;96850.69;;;18.73;63.96
44131;BME280;29792;48.726;9.248;2023-10-13T08:08:41;96852.59;;;18.79;64.09
44131;BME280;29792;48.726;9.248;2023-10-13T08:11:15;96843.91;;;18.87;64.03
44131;BME280;29792;48.726;9.248;2023-10-13T08:13:54;96842.63;;;18.97;64.01
44131;BME280;29792;48.726;9.248;2023-10-13T08:16:21;96840.97;;;19.04;63.62
44131;BME280;29792;48.726;9.248;2023-10-13T08:18:51;96837.63;;;19.11;63.46
44131;BME280;29792;48.726;9.248;2023-10-13T08:21:18;96832.34;;;19.19;63.56
44131;BME280;29792;48.726;9.248;2023-10-13T08:23:44;96833.06;;;19.27;63.37
44131;BME280;29792;48.726;9.248;2023-10-13T08:26:18;96840.56;;;19.37;63.18
44131;BME280;29792;48.726;9.248;2023-10-13T08:29:05;96840.13;;;19.48;62.69
44131;BME280;29792;48.726;9.248;2023-10-13T08:31:50;96834.44;;;19.59;62.43
44131;BME280;29792;48.726;9.248;2023-10-13T08:34:47;96832.16;;;19.71;61.96
44131;BME280;29792;48.726;9.248;2023-10-13T08:37:13;96833.47;;;19.81;62.10
44131;BME280;29792;48.726;9.248;2023-10-13T08:39:57;96825.19;;;19.93;61.77
44131;BME280;29792;48.726;9.248;2023-10-13T08:42:37;96825.31;;;20.06;61.92
44131;BME280;29792;48.726;9.248;2023-10-13T08:45:08;96829.63;;;20.20;61.47
44131;BME280;29792;48.726;9.248;2023-10-13T08:47:55;96816.19;;;20.38;60.64
44131;BME280;29792;48.726;9.248;2023-10-13T08:50:44;96819.94;;;20.56;60.21
44131;BME280;29792;48.726;9.248;2023-10-13T08:58:32;96807.22;;;21.09;57.44
44131;BME280;29792;48.726;9.248;2023-10-13T09:01:17;96806.72;;;21.27;56.41
44131;BME280;29792;48.726;9.248;2023-10-13T09:04:03;96808.59;;;21.40;56.37
44131;BME280;29792;48.726;9.248;2023-10-13T09:06:57;96803.59;;;21.58;56.85
44131;BME280;29792;48.726;9.248;2023-10-13T09:09:25;96806.84;;;21.73;56.61
44131;BME280;29792;48.726;9.248;2023-10-13T09:12:00;96802.47;;;21.93;56.79
44131;BME280;29792;48.726;9.248;2023-10-13T09:14:39;96798.09;;;22.14;54.57
44131;BME280;29792;48.726;9.248;2023-10-13T09:17:10;96804.13;;;22.34;53.55
44131;BME280;29792;48.726;9.248;2023-10-13T09:20:05;96804.69;;;22.56;52.71
44131;BME280;29792;48.726;9.248;2023-10-13T09:22:47;96802.09;;;22.75;51.66
44131;BME280;29792;48.726;9.248;2023-10-13T09:25:37;96806.09;;;22.91;50.71
44131;BME280;29792;48.726;9.248;2023-10-13T09:28:10;96795.38;;;23.06;50.75
44131;BME280;29792;48.726;9.248;2023-10-13T09:30:50;96790.09;;;23.26;49.06
44131;BME280;29792;48.726;9.248;2023-10-13T09:33:23;96790.41;;;23.42;48.71
44131;BME280;29792;48.726;9.248;2023-10-13T09:36:07;96788.50;;;23.63;48.69
44131;BME280;29792;48.726;9.248;2023-10-13T09:38:33;96793.25;;;23.79;48.02
44131;BME280;29792;48.726;9.248;2023-10-13T09:40:59;96783.88;;;23.96;46.96
44131;BME280;29792;48.726;9.248;2023-10-13T09:43:34;96776.09;;;24.14;46.75
44131;BME280;29792;48.726;9.248;2023-10-13T09:46:04;96771.34;;;24.29;45.91
44131;BME280;29792;48.726;9.248;2023-10-13T09:48:32;96768.38;;;24.44;45.34
44131;BME280;29792;48.726;9.248;2023-10-13T09:51:04;96764.19;;;24.61;45.09
44131;BME280;29792;48.726;9.248;2023-10-13T09:53:36;96769.06;;;24.76;44.25
44131;BME280;29792;48.726;9.248;2023-10-13T09:56:16;96762.66;;;24.90;43.07
44131;BME280;29792;48.726;9.248;2023-10-13T09:58:53;96751.06;;;25.04;42.96
44131;BME280;29792;48.726;9.248;2023-10-13T10:01:25;96761.97;;;25.20;42.53
44131;BME280;29792;48.726;9.248;2023-10-13T10:04:09;96759.94;;;25.33;41.29
44131;BME280;29792;48.726;9.248;2023-10-13T10:06:37;96765.69;;;25.42;40.09
44131;BME280;29792;48.726;9.248;2023-10-13T10:09:11;96751.25;;;25.51;39.86
44131;BME280;29792;48.726;9.248;2023-10-13T10:11:44;96751.06;;;25.64;40.01
44131;BME280;29792;48.726;9.248;2023-10-13T10:14:16;96747.81;;;25.80;40.21
44131;BME280;29792;48.726;9.248;2023-10-13T10:17:04;96751.28;;;25.93;39.26
44131;BME280;29792;48.726;9.248;2023-10-13T10:19:33;96738.50;;;26.08;39.34
44131;BME280;29792;48.726;9.248;2023-10-13T10:22:04;96745.81;;;26.17;38.53
44131;BME280;29792;48.726;9.248;2023-10-13T10:25:00;96740.56;;;26.29;37.66
44131;BME280;29792;48.726;9.248;2023-10-13T10:27:32;96746.06;;;26.39;37.91
44131;BME280;29792;48.726;9.248;2023-10-13T10:29:58;96742.16;;;26.53;37.95
44131;BME280;29792;48.726;9.248;2023-10-13T10:32:36;96737.13;;;26.64;36.69
44131;BME280;29792;48.726;9.248;2023-10-13T10:35:04;96738.69;;;26.76;37.28
44131;BME280;29792;48.726;9.248;2023-10-13T10:37:34;96730.13;;;26.92;37.36
44131;BME280;29792;48.726;9.248;2023-10-13T10:40:07;96728.50;;;27.03;36.53
44131;BME280;29792;48.726;9.248;2023-10-13T10:42:32;96720.81;;;27.13;36.20
44131;BME280;29792;48.726;9.248;2023-10-13T10:44:58;96721.25;;;27.22;36.04
44131;BME280;29792;48.726;9.248;2023-10-13T10:47:31;96715.38;;;27.31;35.95
44131;BME280;29792;48.726;9.248;2023-10-13T10:49:58;96719.19;;;27.41;36.38
44131;BME280;29792;48.726;9.248;2023-10-13T10:52:27;96710.69;;;27.50;35.85
44131;BME280;29792;48.726;9.248;2023-10-13T10:54:59;96700.94;;;27.62;36.27
44131;BME280;29792;48.726;9.248;2023-10-13T10:57:25;96705.56;;;27.72;35.30
44131;BME280;29792;48.726;9.248;2023-10-13T10:59:54;96704.28;;;27.75;33.94
44131;BME280;29792;48.726;9.248;2023-10-13T11:02:37;96693.19;;;27.73;35.14
44131;BME280;29792;48.726;9.248;2023-10-13T11:05:03;96681.94;;;27.77;34.99
44131;BME280;29792;48.726;9.248;2023-10-13T11:07:31;96685.59;;;27.76;34.57
44131;BME280;29792;48.726;9.248;2023-10-13T11:10:07;96683.22;;;27.75;34.22
44131;BME280;29792;48.726;9.248;2023-10-13T11:12:36;96668.72;;;27.72;34.46
44131;BME280;29792;48.726;9.248;2023-10-13T11:15:05;96671.56;;;27.70;34.55
44131;BME280;29792;48.726;9.248;2023-10-13T11:17:58;96671.00;;;27.68;34.73
44131;BME280;29792;48.726;9.248;2023-10-13T11:20:24;96667.91;;;27.71;35.37
44131;BME280;29792;48.726;9.248;2023-10-13T11:22:59;96670.03;;;27.75;34.36
44131;BME280;29792;48.726;9.248;2023-10-13T11:25:31;96674.03;;;27.77;35.10
44131;BME280;29792;48.726;9.248;2023-10-13T11:28:29;96660.31;;;27.75;34.46
44131;BME280;29792;48.726;9.248;2023-10-13T11:30:56;96661.34;;;27.74;33.98
44131;BME280;29792;48.726;9.248;2023-10-13T11:33:26;96654.19;;;27.69;34.40
44131;BME280;29792;48.726;9.248;2023-10-13T11:35:54;96659.44;;;27.69;33.88
44131;BME280;29792;48.726;9.248;2023-10-13T11:38:20;96662.31;;;27.68;34.12
44131;BME280;29792;48.726;9.248;2023-10-13T11:41:00;96657.63;;;27.70;34.33
44131;BME280;29792;48.726;9.248;2023-10-13T11:43:32;96669.00;;;27.76;34.27
44131;BME280;29792;48.726;9.248;2023-10-13T11:46:07;96654.56;;;27.78;33.34
44131;BME280;29792;48.726;9.248;2023-10-13T11:48:39;96649.63;;;27.82;34.36
44131;BME280;29792;48.726;9.248;2023-10-13T11:51:11;96644.91;;;27.84;33.39
44131;BME280;29792;48.726;9.248;2023-10-13T11:53:45;96645.47;;;27.86;33.41
44131;BME280;29792;48.726;9.248;2023-10-13T11:56:16;96644.22;;;27.88;33.37
44131;BME280;29792;48.726;9.248;2023-10-13T11:58:42;96645.31;;;27.92;32.73
44131;BME280;29792;48.726;9.248;2023-10-13T12:01:07;96642.44;;;27.94;31.94
44131;BME280;29792;48.726;9.248;2023-10-13T12:03:53;96638.25;;;27.98;32.00
44131;BME280;29792;48.726;9.248;2023-10-13T12:06:37;96625.41;;;28.01;32.44
44131;BME280;29792;48.726;9.248;2023-10-13T12:09:07;96611.28;;;28.07;32.08
44131;BME280;29792;48.726;9.248;2023-10-13T12:11:45;96614.78;;;28.13;32.60
44131;BME280;29792;48.726;9.248;2023-10-13T12:14:12;96610.41;;;28.19;32.17
44131;BME280;29792;48.726;9.248;2023-10-13T12:16:52;96608.38;;;28.26;32.38
44131;BME280;29792;48.726;9.248;2023-10-13T12:19:19;96600.53;;;28.31;32.19
44131;BME280;29792;48.726;9.248;2023-10-13T12:21:52;96603.50;;;28.34;31.77
44131;BME280;29792;48.726;9.248;2023-10-13T12:24:27;96599.06;;;28.40;32.14
44131;BME280;29792;48.726;9.248;2023-10-13T12:27:15;96587.25;;;28.42;31.75
44131;BME280;29792;48.726;9.248;2023-10-13T12:29:51;96593.06;;;28.44;32.09
44131;BME280;29792;48.726;9.248;2023-10-13T12:32:22;96585.97;;;28.45;31.72
44131;BME280;29792;48.726;9.248;2023-10-13T12:34:49;96587.84;;;28.50;31.80
44131;BME280;29792;48.726;9.248;2023-10-13T12:37:28;96582.88;;;28.53;31.81
44131;BME280;29792;48.726;9.248;2023-10-13T12:40:19;96585.56;;;28.58;32.12
44131;BME280;29792;48.726;9.248;2023-10-13T12:43:04;96580.63;;;28.62;31.96
44131;BME280;29792;48.726;9.248;2023-10-13T12:45:49;96568.75;;;28.64;31.46
44131;BME280;29792;48.726;9.248;2023-10-13T12:48:35;96567.16;;;28.63;31.66
44131;BME280;29792;48.726;9.248;2023-10-13T12:51:19;96565.28;;;28.59;32.03
44131;BME280;29792;48.726;9.248;2023-10-13T12:54:01;96550.97;;;28.55;31.55
44131;BME280;29792;48.726;9.248;2023-10-13T12:56:40;96556.47;;;28.48;31.12
44131;BME280;29792;48.726;9.248;2023-10-13T12:59:09;96554.00;;;28.41;30.94
44131;BME280;29792;48.726;9.248;2023-10-13T13:01:38;96551.38;;;28.41;31.34
44131;BME280;29792;48.726;9.248;2023-10-13T13:04:07;96559.59;;;28.45;31.45
44131;BME280;29792;48.726;9.248;2023-10-13T13:09:04;96534.38;;;28.54;31.69
44131;BME280;29792;48.726;9.248;2023-10-13T13:11:29;96536.03;;;28.60;31.73
44131;BME280;29792;48.726;9.248;2023-10-13T13:13:55;96534.00;;;28.67;31.52
44131;BME280;29792;48.726;9.248;2023-10-13T13:16:20;96527.97;;;28.72;30.85
44131;BME280;29792;48.726;9.248;2023-10-13T13:18:55;96524.63;;;28.76;31.15
44131;BME280;29792;48.726;9.248;2023-10-13T13:21:21;96524.09;;;28.79;30.55
44131;BME280;29792;48.726;9.248;2023-10-13T13:23:49;96514.59;;;28.78;30.41
44131;BME280;29792;48.726;9.248;2023-10-13T13:26:15;96515.16;;;28.80;30.46
44131;BME280;29792;48.726;9.248;2023-10-13T13:28:45;96510.44;;;28.82;30.57
44131;BME280;29792;48.726;9.248;2023-10-13T13:31:10;96503.59;;;28.87;30.91
44131;BME280;29792;48.726;9.248;2023-10-13T13:33:38;96501.00;;;28.92;30.79
44131;BME280;29792;48.726;9.248;2023-10-13T13:36:07;96502.09;;;28.96;29.74
44131;BME280;29792;48.726;9.248;2023-10-13T13:38:33;96494.19;;;28.96;29.07
44131;BME280;29792;48.726;9.248;2023-10-13T13:40:59;96505.53;;;28.96;28.57
44131;BME280;29792;48.726;9.248;2023-10-13T13:43:26;96501.28;;;28.95;28.69
44131;BME280;29792;48.726;9.248;2023-10-13T13:46:07;96488.91;;;28.96;28.46